sensor_id;sensor_type;location;lat;lon;timestamp;pressure;altitude;pressure_sealevel;temperature;humidity
12073;BME280;6098;49.004;8.372;2023-05-02T00:06:20;100516.17;;;12.53;92.37
12073;BME280;6098;49.004;8.372;2023-05-02T00:21:11;100509.38;;;12.37;91.68
12073;BME280;6098;49.004;8.372;2023-05-02T00:36:22;100516.19;;;12.23;92.27
12073;BME280;6098;49.004;8.372;2023-05-02T00:51:47;100516.89;;;12.07;92.41
12073;BME280;6098;49.004;8.372;2023-05-02T02:23:37;100603.16;;;11.54;92.37
12073;BME280;6098;49.004;8.372;2023-05-02T02:38:30;100618.11;;;11.57;92.21
12073;BME280;6098;49.004;8.372;2023-05-02T02:53:23;100609.65;;;11.58;92.31
12073;BME280;6098;49.004;8.372;2023-05-02T03:08:12;100638.84;;;11.59;92.16
12073;BME280;6098;49.004;8.372;2023-05-02T03:23:04;100654.93;;;11.54;92.28
12073;BME280;6098;49.004;8.372;2023-05-02T03:37:57;100662.50;;;11.53;92.50
12073;BME280;6098;49.004;8.372;2023-05-02T03:52:48;100656.25;;;11.42;92.29
12073;BME280;6098;49.004;8.372;2023-05-02T04:07:52;100690.80;;;11.30;92.15
12073;BME280;6098;49.004;8.372;2023-05-02T04:22:44;100718.28;;;11.28;92.21
12073;BME280;6098;49.004;8.372;2023-05-02T04:37:35;100720.77;;;11.21;92.76
12073;BME280;6098;49.004;8.372;2023-05-02T04:52:27;100739.72;;;11.23;93.15
12073;BME280;6098;49.004;8.372;2023-05-02T05:07:21;100769.72;;;11.37;92.76
12073;BME280;6098;49.004;8.372;2023-05-02T05:22:15;100791.81;;;11.62;91.64
12073;BME280;6098;49.004;8.372;2023-05-02T05:37:07;100818.75;;;11.88;90.89
12073;BME280;6098;49.004;8.372;2023-05-02T05:51:59;100827.64;;;12.11;89.80
12073;BME280;6098;49.004;8.372;2023-05-02T06:06:52;100841.52;;;12.41;89.07
12073;BME280;6098;49.004;8.372;2023-05-02T06:21:44;100849.31;;;12.79;86.93
12073;BME280;6098;49.004;8.372;2023-05-02T06:36:36;100889.66;;;13.01;85.39
12073;BME280;6098;49.004;8.372;2023-05-02T06:51:29;100913.83;;;13.28;84.85
12073;BME280;6098;49.004;8.372;2023-05-02T07:06:21;100915.66;;;13.49;84.07
12073;BME280;6098;49.004;8.372;2023-05-02T07:21:15;100923.64;;;13.89;82.93
12073;BME280;6098;49.004;8.372;2023-05-02T07:36:08;100917.94;;;14.47;74.42
12073;BME280;6098;49.004;8.372;2023-05-02T07:51:06;100936.25;;;14.64;73.42
12073;BME280;6098;49.004;8.372;2023-05-02T08:06:00;100941.59;;;14.54;72.18
12073;BME280;6098;49.004;8.372;2023-05-02T08:20:54;100955.81;;;14.64;71.98
12073;BME280;6098;49.004;8.372;2023-05-02T08:35:45;100960.59;;;14.95;70.68
12073;BME280;6098;49.004;8.372;2023-05-02T08:50:39;100970.63;;;15.26;69.92
12073;BME280;6098;49.004;8.372;2023-05-02T09:05:32;100982.39;;;15.76;66.16
12073;BME280;6098;49.004;8.372;2023-05-02T09:20:27;100982.58;;;15.72;66.65
12073;BME280;6098;49.004;8.372;2023-05-02T09:35:19;100985.20;;;16.00;65.65
12073;BME280;6098;49.004;8.372;2023-05-02T09:50:18;100984.89;;;16.23;64.87
12073;BME280;6098;49.004;8.372;2023-05-02T10:05:05;100988.91;;;16.39;62.65
12073;BME280;6098;49.004;8.372;2023-05-02T10:20:04;100999.16;;;16.57;62.18
12073;BME280;6098;49.004;8.372;2023-05-02T10:34:57;100991.69;;;16.55;60.94
12073;BME280;6098;49.004;8.372;2023-05-02T10:49:51;100989.68;;;16.83;61.46
12073;BME280;6098;49.004;8.372;2023-05-02T11:05:03;100987.05;;;17.60;56.63
12073;BME280;6098;49.004;8.372;2023-05-02T11:34:59;100990.08;;;17.23;56.67
12073;BME280;6098;49.004;8.372;2023-05-02T11:49:50;100982.53;;;17.61;54.22
12073;BME280;6098;49.004;8.372;2023-05-02T12:04:48;100980.06;;;17.66;52.75
12073;BME280;6098;49.004;8.372;2023-05-02T12:19:40;100993.77;;;18.34;52.38
12073;BME280;6098;49.004;8.372;2023-05-02T12:34:33;100995.78;;;18.88;49.72
12073;BME280;6098;49.004;8.372;2023-05-02T12:49:25;100996.22;;;19.02;48.50
12073;BME280;6098;49.004;8.372;2023-05-02T13:04:16;100983.08;;;18.70;46.85
12073;BME280;6098;49.004;8.372;2023-05-02T13:19:08;100989.07;;;18.53;48.62
12073;BME280;6098;49.004;8.372;2023-05-02T13:33:59;100995.14;;;18.34;49.13
12073;BME280;6098;49.004;8.372;2023-05-02T13:48:53;100973.73;;;18.62;47.73
12073;BME280;6098;49.004;8.372;2023-05-02T14:03:46;100976.13;;;19.76;45.64
12073;BME280;6098;49.004;8.372;2023-05-02T14:18:44;100964.63;;;20.44;42.29
12073;BME280;6098;49.004;8.372;2023-05-02T14:33:42;100964.97;;;20.89;41.37
12073;BME280;6098;49.004;8.372;2023-05-02T14:48:39;100963.00;;;21.35;40.97
12073;BME280;6098;49.004;8.372;2023-05-02T15:03:38;100959.39;;;22.57;36.96
12073;BME280;6098;49.004;8.372;2023-05-02T15:18:30;100966.20;;;22.56;36.57
12073;BME280;6098;49.004;8.372;2023-05-02T15:33:19;100964.05;;;22.99;32.31
12073;BME280;6098;49.004;8.372;2023-05-02T15:48:17;100967.85;;;23.19;34.22
12073;BME280;6098;49.004;8.372;2023-05-02T16:03:09;100977.62;;;22.32;33.75
12073;BME280;6098;49.004;8.372;2023-05-02T16:17:55;100981.38;;;20.80;34.55
12073;BME280;6098;49.004;8.372;2023-05-02T16:32:41;100985.92;;;20.03;36.13
12073;BME280;6098;49.004;8.372;2023-05-02T16:47:32;100990.71;;;19.66;42.54
12073;BME280;6098;49.004;8.372;2023-05-02T17:02:24;101007.94;;;19.29;43.72
12073;BME280;6098;49.004;8.372;2023-05-02T17:17:16;100997.58;;;18.95;43.33
12073;BME280;6098;49.004;8.372;2023-05-02T17:32:08;101012.78;;;18.81;43.56
12073;BME280;6098;49.004;8.372;2023-05-02T17:47:00;101013.13;;;18.54;43.84
12073;BME280;6098;49.004;8.372;2023-05-02T18:01:51;101028.91;;;18.16;44.72
12073;BME280;6098;49.004;8.372;2023-05-02T18:16:44;101043.05;;;17.96;45.92
12073;BME280;6098;49.004;8.372;2023-05-02T18:31:36;101058.66;;;17.74;47.20
12073;BME280;6098;49.004;8.372;2023-05-02T18:46:31;101066.69;;;17.43;49.16
12073;BME280;6098;49.004;8.372;2023-05-02T19:01:21;101087.02;;;17.15;50.33
12073;BME280;6098;49.004;8.372;2023-05-02T19:16:13;101115.64;;;16.72;52.24
12073;BME280;6098;49.004;8.372;2023-05-02T19:31:12;101138.33;;;16.39;52.90
12073;BME280;6098;49.004;8.372;2023-05-02T19:46:08;101157.47;;;16.13;53.44
12073;BME280;6098;49.004;8.372;2023-05-02T20:00:59;101181.25;;;15.92;53.95
12073;BME280;6098;49.004;8.372;2023-05-02T20:15:50;101194.45;;;15.58;53.63
12073;BME280;6098;49.004;8.372;2023-05-02T20:30:41;101203.46;;;15.26;54.62
12073;BME280;6098;49.004;8.372;2023-05-02T20:45:32;101218.29;;;15.03;54.53
12073;BME280;6098;49.004;8.372;2023-05-02T21:00:25;101232.86;;;14.75;55.09
12073;BME280;6098;49.004;8.372;2023-05-02T21:15:16;101240.63;;;14.50;55.95
12073;BME280;6098;49.004;8.372;2023-05-02T21:30:10;101243.09;;;14.21;56.01
12073;BME280;6098;49.004;8.372;2023-05-02T21:45:01;101248.97;;;13.96;56.24
12073;BME280;6098;49.004;8.372;2023-05-02T21:59:52;101241.39;;;13.86;57.17
12073;BME280;6098;49.004;8.372;2023-05-02T22:14:46;101244.41;;;13.65;57.63
12073;BME280;6098;49.004;8.372;2023-05-02T22:29:37;101248.15;;;13.36;58.72
12073;BME280;6098;49.004;8.372;2023-05-02T22:44:28;101264.91;;;13.15;59.65
12073;BME280;6098;49.004;8.372;2023-05-02T22:59:21;101257.52;;;12.71;61.56
12073;BME280;6098;49.004;8.372;2023-05-02T23:14:13;101274.31;;;12.60;62.50
12073;BME280;6098;49.004;8.372;2023-05-02T23:29:04;101278.09;;;12.39;63.14
12073;BME280;6098;49.004;8.372;2023-05-02T23:43:54;101281.30;;;12.21;64.10
12073;BME280;6098;49.004;8.372;2023-05-02T23:58:45;101282.44;;;11.99;65.37
